sensor_id;sensor_type;location;lat;lon;timestamp;pressure;altitude;pressure_sealevel;temperature;humidity
62976;BME280;49071;0.000;0.000;2023-02-19T07:24:47;100716.06;;;16.16;38.62
62976;BME280;49071;0.000;0.000;2023-02-19T07:27:47;100719.25;;;16.24;38.57
62976;BME280;49071;0.000;0.000;2023-02-19T07:30:47;100723.94;;;16.38;38.53
62976;BME280;49071;0.000;0.000;2023-02-19T07:33:47;100733.38;;;16.64;38.60
62976;BME280;49071;0.000;0.000;2023-02-19T07:36:48;100741.00;;;16.92;38.61
62976;BME280;49071;0.000;0.000;2023-02-19T07:39:48;100746.25;;;17.12;38.78
62976;BME280;49071;0.000;0.000;2023-02-19T07:42:49;100751.53;;;17.31;38.29
62976;BME280;49071;0.000;0.000;2023-02-19T07:45:49;100751.63;;;17.50;38.19
62976;BME280;49071;0.000;0.000;2023-02-19T07:48:49;100755.31;;;17.65;38.02
62976;BME280;49071;0.000;0.000;2023-02-19T07:51:49;100768.59;;;17.82;37.90
62976;BME280;49071;0.000;0.000;2023-02-19T07:54:49;100772.97;;;18.02;37.55
62976;BME280;49071;0.000;0.000;2023-02-19T07:57:50;100779.91;;;18.22;36.97
62976;BME280;49071;0.000;0.000;2023-02-19T08:00:50;100781.03;;;18.35;37.06
62976;BME280;49071;0.000;0.000;2023-02-19T08:03:50;100790.56;;;18.38;37.12
62976;BME280;49071;0.000;0.000;2023-02-19T08:06:51;100795.66;;;18.41;36.82
62976;BME280;49071;0.000;0.000;2023-02-19T08:09:51;100798.06;;;18.46;36.85
62976;BME280;49071;0.000;0.000;2023-02-19T08:13:12;100802.41;;;18.47;36.91
62976;BME280;49071;0.000;0.000;2023-02-19T08:16:19;100804.25;;;18.45;36.56
62976;BME280;49071;0.000;0.000;2023-02-19T08:19:19;100812.06;;;18.46;36.58
62976;BME280;49071;0.000;0.000;2023-02-19T08:22:19;100817.47;;;18.43;36.64
62976;BME280;49071;0.000;0.000;2023-02-19T08:25:19;100820.28;;;18.38;37.02
62976;BME280;49071;0.000;0.000;2023-02-19T08:28:20;100821.44;;;18.33;37.02
62976;BME280;49071;0.000;0.000;2023-02-19T08:31:20;100821.78;;;18.25;37.08
62976;BME280;49071;0.000;0.000;2023-02-19T08:34:20;100827.38;;;18.17;37.21
62976;BME280;49071;0.000;0.000;2023-02-19T08:37:20;100833.59;;;18.15;37.21
62976;BME280;49071;0.000;0.000;2023-02-19T08:40:20;100847.81;;;18.11;37.18
62976;BME280;49071;0.000;0.000;2023-02-19T08:43:20;100851.22;;;18.13;37.39
62976;BME280;49071;0.000;0.000;2023-02-19T08:46:21;100858.84;;;18.19;37.43
62976;BME280;49071;0.000;0.000;2023-02-19T08:49:24;100874.28;;;18.25;37.22
62976;BME280;49071;0.000;0.000;2023-02-19T08:52:24;100879.41;;;18.28;37.27
62976;BME280;49071;0.000;0.000;2023-02-19T08:55:24;100893.09;;;18.35;37.36
62976;BME280;49071;0.000;0.000;2023-02-19T08:58:24;100899.78;;;18.42;37.04
62976;BME280;49071;0.000;0.000;2023-02-19T09:01:25;100903.84;;;18.49;37.18
62976;BME280;49071;0.000;0.000;2023-02-19T09:04:25;100907.03;;;18.56;37.49
62976;BME280;49071;0.000;0.000;2023-02-19T09:07:26;100910.19;;;18.64;37.13
62976;BME280;49071;0.000;0.000;2023-02-19T09:10:26;100910.50;;;18.77;37.10
62976;BME280;49071;0.000;0.000;2023-02-19T09:13:26;100932.59;;;18.92;37.10
62976;BME280;49071;0.000;0.000;2023-02-19T09:16:27;100935.88;;;18.97;37.02
62976;BME280;49071;0.000;0.000;2023-02-19T09:19:27;100936.78;;;18.96;36.87
62976;BME280;49071;0.000;0.000;2023-02-19T09:22:27;100936.00;;;18.94;36.79
62976;BME280;49071;0.000;0.000;2023-02-19T09:25:28;100946.53;;;18.94;36.97
62976;BME280;49071;0.000;0.000;2023-02-19T09:28:28;100956.25;;;18.92;37.02
62976;BME280;49071;0.000;0.000;2023-02-19T09:31:28;100948.59;;;18.87;37.26
62976;BME280;49071;0.000;0.000;2023-02-19T09:34:28;100946.16;;;18.82;37.22
62976;BME280;49071;0.000;0.000;2023-02-19T09:37:28;100952.41;;;18.80;37.12
62976;BME280;49071;0.000;0.000;2023-02-19T09:40:28;100965.88;;;18.72;37.02
62976;BME280;49071;0.000;0.000;2023-02-19T09:43:29;100963.19;;;18.74;36.73
62976;BME280;49071;0.000;0.000;2023-02-19T09:46:30;100966.13;;;18.66;37.23
62976;BME280;49071;0.000;0.000;2023-02-19T09:49:33;100961.75;;;18.67;36.76
62976;BME280;49071;0.000;0.000;2023-02-19T09:52:44;100962.06;;;18.59;36.94
62976;BME280;49071;0.000;0.000;2023-02-19T09:55:46;100964.34;;;18.48;37.44
62976;BME280;49071;0.000;0.000;2023-02-19T09:58:47;100972.34;;;18.45;37.36
62976;BME280;49071;0.000;0.000;2023-02-19T10:01:50;100971.88;;;18.35;37.61
62976;BME280;49071;0.000;0.000;2023-02-19T10:04:51;100974.13;;;18.44;37.78
62976;BME280;49071;0.000;0.000;2023-02-19T10:07:51;100987.31;;;18.42;37.89
62976;BME280;49071;0.000;0.000;2023-02-19T10:10:52;100994.16;;;18.47;37.86
62976;BME280;49071;0.000;0.000;2023-02-19T10:17:32;100995.72;;;18.51;37.74
62976;BME280;49071;0.000;0.000;2023-02-19T10:20:33;101005.69;;;18.63;37.59
62976;BME280;49071;0.000;0.000;2023-02-19T10:23:33;101006.34;;;18.68;37.78
62976;BME280;49071;0.000;0.000;2023-02-19T10:26:34;101008.59;;;18.77;37.63
62976;BME280;49071;0.000;0.000;2023-02-19T10:29:35;101016.19;;;18.83;37.70
62976;BME280;49071;0.000;0.000;2023-02-19T10:32:35;101019.25;;;18.93;37.37
62976;BME280;49071;0.000;0.000;2023-02-19T10:42:21;101035.25;;;19.26;37.13
62976;BME280;49071;0.000;0.000;2023-02-19T10:45:22;101042.94;;;19.31;37.06
62976;BME280;49071;0.000;0.000;2023-02-19T10:48:24;101041.50;;;19.43;36.55
62976;BME280;49071;0.000;0.000;2023-02-19T10:51:30;101052.31;;;19.37;36.86
62976;BME280;49071;0.000;0.000;2023-02-19T10:54:32;101057.78;;;19.32;37.07
62976;BME280;49071;0.000;0.000;2023-02-19T10:57:33;101065.97;;;19.26;36.88
62976;BME280;49071;0.000;0.000;2023-02-19T11:00:36;101066.75;;;19.28;36.94
62976;BME280;49071;0.000;0.000;2023-02-19T11:03:36;101078.47;;;19.21;36.87
62976;BME280;49071;0.000;0.000;2023-02-19T11:06:36;101080.19;;;19.22;37.14
62976;BME280;49071;0.000;0.000;2023-02-19T11:09:37;101087.41;;;19.17;37.07
62976;BME280;49071;0.000;0.000;2023-02-19T11:12:38;101083.34;;;19.09;37.28
62976;BME280;49071;0.000;0.000;2023-02-19T11:15:38;101089.63;;;19.07;37.28
62976;BME280;49071;0.000;0.000;2023-02-19T11:18:39;101100.34;;;19.02;37.36
62976;BME280;49071;0.000;0.000;2023-02-19T11:21:41;101106.06;;;18.92;37.83
62976;BME280;49071;0.000;0.000;2023-02-19T11:24:41;101096.03;;;18.81;37.91
62976;BME280;49071;0.000;0.000;2023-02-19T11:27:56;101098.84;;;18.76;37.98
62976;BME280;49071;0.000;0.000;2023-02-19T11:37:20;101109.41;;;18.54;38.08
62976;BME280;49071;0.000;0.000;2023-02-19T11:40:21;101117.59;;;18.47;38.18
62976;BME280;49071;0.000;0.000;2023-02-19T11:49:37;101117.66;;;18.45;38.40
62976;BME280;49071;0.000;0.000;2023-02-19T11:59:11;101130.25;;;18.79;39.22
62976;BME280;49071;0.000;0.000;2023-02-19T12:05:30;101148.59;;;19.01;39.09
62976;BME280;49071;0.000;0.000;2023-02-19T12:37:04;101163.25;;;19.07;39.56
62976;BME280;49071;0.000;0.000;2023-02-19T12:43:16;101156.94;;;19.11;40.28
62976;BME280;49071;0.000;0.000;2023-02-19T12:46:18;101151.31;;;19.19;40.81
62976;BME280;49071;0.000;0.000;2023-02-19T12:49:25;101156.66;;;19.17;41.17
62976;BME280;49071;0.000;0.000;2023-02-19T12:52:29;101169.00;;;19.15;41.02
62976;BME280;49071;0.000;0.000;2023-02-19T12:55:41;101149.81;;;19.13;41.48
62976;BME280;49071;0.000;0.000;2023-02-19T12:58:49;101158.88;;;19.06;41.95
62976;BME280;49071;0.000;0.000;2023-02-19T13:01:57;101149.22;;;19.06;42.11
62976;BME280;49071;0.000;0.000;2023-02-19T13:08:15;101163.25;;;19.07;41.82
62976;BME280;49071;0.000;0.000;2023-02-19T13:14:38;101174.03;;;19.01;42.12
62976;BME280;49071;0.000;0.000;2023-02-19T13:17:40;101174.91;;;19.00;41.94
62976;BME280;49071;0.000;0.000;2023-02-19T13:20:42;101185.00;;;18.90;42.50
62976;BME280;49071;0.000;0.000;2023-02-19T13:23:43;101202.25;;;18.96;42.49
62976;BME280;49071;0.000;0.000;2023-02-19T13:27:02;101209.44;;;18.92;42.58
62976;BME280;49071;0.000;0.000;2023-02-19T13:36:25;101207.50;;;18.75;42.92
62976;BME280;49071;0.000;0.000;2023-02-19T13:39:26;101208.91;;;18.62;42.43
62976;BME280;49071;0.000;0.000;2023-02-19T13:42:35;101205.00;;;18.50;42.58
62976;BME280;49071;0.000;0.000;2023-02-19T13:45:37;101197.41;;;18.42;42.27
62976;BME280;49071;0.000;0.000;2023-02-19T13:48:39;101211.31;;;18.46;42.33
62976;BME280;49071;0.000;0.000;2023-02-19T13:51:46;101219.19;;;18.46;41.97
62976;BME280;49071;0.000;0.000;2023-02-19T13:54:48;101214.66;;;18.50;42.04
62976;BME280;49071;0.000;0.000;2023-02-19T13:57:48;101204.03;;;18.53;41.88
62976;BME280;49071;0.000;0.000;2023-02-19T14:00:49;101214.41;;;18.56;41.91
62976;BME280;49071;0.000;0.000;2023-02-19T14:03:54;101222.13;;;18.60;41.26
62976;BME280;49071;0.000;0.000;2023-02-19T14:07:18;101228.88;;;18.66;41.50
62976;BME280;49071;0.000;0.000;2023-02-19T14:11:01;101225.13;;;18.73;40.85
62976;BME280;49071;0.000;0.000;2023-02-19T14:16:49;101232.31;;;18.90;40.74
62976;BME280;49071;0.000;0.000;2023-02-19T14:19:54;101240.66;;;19.00;40.50
62976;BME280;49071;0.000;0.000;2023-02-19T14:22:59;101238.56;;;19.08;40.23
62976;BME280;49071;0.000;0.000;2023-02-19T14:26:00;101249.84;;;19.10;40.04
62976;BME280;49071;0.000;0.000;2023-02-19T14:29:03;101240.13;;;19.12;39.78
62976;BME280;49071;0.000;0.000;2023-02-19T14:32:05;101243.69;;;19.11;39.75
62976;BME280;49071;0.000;0.000;2023-02-19T14:35:05;101244.66;;;19.08;39.69
62976;BME280;49071;0.000;0.000;2023-02-19T14:38:06;101244.81;;;19.05;39.91
62976;BME280;49071;0.000;0.000;2023-02-19T14:41:13;101251.88;;;19.03;39.67
62976;BME280;49071;0.000;0.000;2023-02-19T14:44:16;101259.19;;;18.97;39.85
62976;BME280;49071;0.000;0.000;2023-02-19T14:47:18;101262.00;;;18.92;39.85
62976;BME280;49071;0.000;0.000;2023-02-19T14:50:24;101264.84;;;18.87;39.69
62976;BME280;49071;0.000;0.000;2023-02-19T14:53:26;101257.19;;;18.81;39.40
62976;BME280;49071;0.000;0.000;2023-02-19T14:56:30;101254.88;;;18.74;39.75
62976;BME280;49071;0.000;0.000;2023-02-19T14:59:31;101257.72;;;18.68;39.49
62976;BME280;49071;0.000;0.000;2023-02-19T15:02:32;101254.50;;;18.61;39.79
62976;BME280;49071;0.000;0.000;2023-02-19T15:05:40;101261.75;;;18.54;39.79
62976;BME280;49071;0.000;0.000;2023-02-19T15:08:47;101265.34;;;18.52;40.01
62976;BME280;49071;0.000;0.000;2023-02-19T15:11:49;101270.50;;;18.55;39.83
62976;BME280;49071;0.000;0.000;2023-02-19T15:14:51;101275.56;;;18.59;39.56
62976;BME280;49071;0.000;0.000;2023-02-19T15:17:52;101281.50;;;18.64;39.63
62976;BME280;49071;0.000;0.000;2023-02-19T15:20:57;101284.72;;;18.71;39.75
62976;BME280;49071;0.000;0.000;2023-02-19T15:23:59;101288.06;;;18.76;39.66
62976;BME280;49071;0.000;0.000;2023-02-19T15:27:00;101283.41;;;18.83;39.29
62976;BME280;49071;0.000;0.000;2023-02-19T15:30:00;101286.59;;;18.91;39.15
62976;BME280;49071;0.000;0.000;2023-02-19T15:33:00;101287.19;;;18.98;39.15
62976;BME280;49071;0.000;0.000;2023-02-19T15:36:04;101288.97;;;18.97;39.19
62976;BME280;49071;0.000;0.000;2023-02-19T15:39:05;101287.13;;;18.99;38.69
62976;BME280;49071;0.000;0.000;2023-02-19T15:42:06;101289.88;;;18.96;39.03
62976;BME280;49071;0.000;0.000;2023-02-19T15:48:14;101297.84;;;18.95;39.07
62976;BME280;49071;0.000;0.000;2023-02-19T15:51:24;101298.94;;;18.89;38.70
62976;BME280;49071;0.000;0.000;2023-02-19T15:54:27;101316.59;;;18.85;38.94
62976;BME280;49071;0.000;0.000;2023-02-19T15:57:31;101321.19;;;18.80;38.81
62976;BME280;49071;0.000;0.000;2023-02-19T16:00:40;101317.03;;;18.75;38.67
62976;BME280;49071;0.000;0.000;2023-02-19T16:03:44;101309.34;;;18.69;39.01
62976;BME280;49071;0.000;0.000;2023-02-19T16:06:52;101313.22;;;18.60;39.01
62976;BME280;49071;0.000;0.000;2023-02-19T16:13:05;101319.03;;;18.23;38.37
62976;BME280;49071;0.000;0.000;2023-02-19T16:16:13;101319.28;;;18.15;37.31
62976;BME280;49071;0.000;0.000;2023-02-19T16:19:19;101339.00;;;18.27;38.12
62976;BME280;49071;0.000;0.000;2023-02-19T16:22:20;101333.28;;;18.39;37.66
62976;BME280;49071;0.000;0.000;2023-02-19T16:25:22;101339.84;;;18.51;36.94
62976;BME280;49071;0.000;0.000;2023-02-19T16:28:24;101340.34;;;18.60;36.97
62976;BME280;49071;0.000;0.000;2023-02-19T16:31:25;101334.66;;;18.71;37.12
62976;BME280;49071;0.000;0.000;2023-02-19T16:34:32;101350.97;;;18.81;36.96
62976;BME280;49071;0.000;0.000;2023-02-19T16:37:34;101350.72;;;18.87;37.01
62976;BME280;49071;0.000;0.000;2023-02-19T16:43:44;101364.91;;;19.05;36.56
62976;BME280;49071;0.000;0.000;2023-02-19T16:46:44;101370.97;;;19.07;36.60
62976;BME280;49071;0.000;0.000;2023-02-19T16:49:44;101377.06;;;19.07;36.79
62976;BME280;49071;0.000;0.000;2023-02-19T16:52:51;101387.63;;;19.06;36.83
62976;BME280;49071;0.000;0.000;2023-02-19T16:55:52;101413.91;;;19.06;36.89
62976;BME280;49071;0.000;0.000;2023-02-19T16:58:52;101408.00;;;19.01;36.78
62976;BME280;49071;0.000;0.000;2023-02-19T17:01:52;101423.91;;;18.98;36.72
62976;BME280;49071;0.000;0.000;2023-02-19T17:04:53;101426.75;;;18.92;36.98
62976;BME280;49071;0.000;0.000;2023-02-19T17:07:54;101432.22;;;18.87;36.96
62976;BME280;49071;0.000;0.000;2023-02-19T17:10:54;101436.00;;;18.80;37.05
62976;BME280;49071;0.000;0.000;2023-02-19T17:13:54;101439.69;;;18.74;37.28
62976;BME280;49071;0.000;0.000;2023-02-19T17:16:55;101450.41;;;18.68;37.06
62976;BME280;49071;0.000;0.000;2023-02-19T17:19:55;101455.03;;;18.61;37.43
62976;BME280;49071;0.000;0.000;2023-02-19T17:22:55;101457.88;;;18.55;37.63
62976;BME280;49071;0.000;0.000;2023-02-19T17:25:55;101458.97;;;18.50;37.46
62976;BME280;49071;0.000;0.000;2023-02-19T17:28:56;101456.56;;;18.44;37.85
62976;BME280;49071;0.000;0.000;2023-02-19T17:31:56;101463.50;;;18.46;37.63
62976;BME280;49071;0.000;0.000;2023-02-19T17:34:56;101451.88;;;18.52;37.98
62976;BME280;49071;0.000;0.000;2023-02-19T17:37:57;101463.13;;;18.55;37.74
62976;BME280;49071;0.000;0.000;2023-02-19T17:40:57;101469.03;;;18.62;38.13
62976;BME280;49071;0.000;0.000;2023-02-19T17:43:57;101475.72;;;18.71;38.15
62976;BME280;49071;0.000;0.000;2023-02-19T17:46:57;101466.59;;;18.81;38.04
62976;BME280;49071;0.000;0.000;2023-02-19T17:49:57;101464.59;;;18.87;38.17
62976;BME280;49071;0.000;0.000;2023-02-19T17:52:57;101463.44;;;18.95;38.06
62976;BME280;49071;0.000;0.000;2023-02-19T17:55:58;101469.22;;;19.04;37.69
62976;BME280;49071;0.000;0.000;2023-02-19T17:58:58;101469.94;;;19.08;37.71
62976;BME280;49071;0.000;0.000;2023-02-19T18:01:58;101459.44;;;19.08;37.56
62976;BME280;49071;0.000;0.000;2023-02-19T18:04:58;101456.06;;;19.04;37.58
62976;BME280;49071;0.000;0.000;2023-02-19T18:07:58;101473.78;;;18.99;37.38
62976;BME280;49071;0.000;0.000;2023-02-19T18:10:59;101471.03;;;19.02;37.46
62976;BME280;49071;0.000;0.000;2023-02-19T18:13:59;101476.25;;;19.04;37.48
62976;BME280;49071;0.000;0.000;2023-02-19T18:16:59;101475.44;;;19.02;37.54
62976;BME280;49071;0.000;0.000;2023-02-19T18:20:00;101473.84;;;18.98;37.72
62976;BME280;49071;0.000;0.000;2023-02-19T18:23:00;101480.94;;;18.96;37.74
62976;BME280;49071;0.000;0.000;2023-02-19T18:26:01;101478.53;;;18.90;37.69
62976;BME280;49071;0.000;0.000;2023-02-19T18:29:01;101476.00;;;18.86;38.13
62976;BME280;49071;0.000;0.000;2023-02-19T18:32:01;101487.56;;;18.82;38.19
62976;BME280;49071;0.000;0.000;2023-02-19T18:35:02;101487.69;;;18.79;38.30
62976;BME280;49071;0.000;0.000;2023-02-19T18:38:02;101483.44;;;18.75;38.38
62976;BME280;49071;0.000;0.000;2023-02-19T18:41:02;101498.47;;;18.72;38.48
62976;BME280;49071;0.000;0.000;2023-02-19T18:44:03;101499.53;;;18.66;38.50
62976;BME280;49071;0.000;0.000;2023-02-19T18:47:04;101501.47;;;18.61;38.74
62976;BME280;49071;0.000;0.000;2023-02-19T18:50:04;101496.31;;;18.58;38.55
62976;BME280;49071;0.000;0.000;2023-02-19T18:53:07;101500.84;;;18.54;38.68
62976;BME280;49071;0.000;0.000;2023-02-19T18:56:07;101496.66;;;18.49;38.74
62976;BME280;49071;0.000;0.000;2023-02-19T18:59:08;101501.16;;;18.45;38.77
62976;BME280;49071;0.000;0.000;2023-02-19T19:02:08;101497.00;;;18.39;39.26
62976;BME280;49071;0.000;0.000;2023-02-19T19:05:09;101502.41;;;18.35;39.30
62976;BME280;49071;0.000;0.000;2023-02-19T19:08:09;101502.56;;;18.30;39.13
62976;BME280;49071;0.000;0.000;2023-02-19T19:11:09;101499.97;;;18.29;39.51
62976;BME280;49071;0.000;0.000;2023-02-19T19:14:09;101493.88;;;18.28;39.51
62976;BME280;49071;0.000;0.000;2023-02-19T19:17:09;101489.47;;;18.29;39.57
62976;BME280;49071;0.000;0.000;2023-02-19T19:20:10;101493.78;;;18.31;39.56
62976;BME280;49071;0.000;0.000;2023-02-19T19:23:11;101502.47;;;18.33;39.92
62976;BME280;49071;0.000;0.000;2023-02-19T19:26:11;101502.41;;;18.35;39.48
62976;BME280;49071;0.000;0.000;2023-02-19T19:29:12;101501.34;;;18.40;39.38
62976;BME280;49071;0.000;0.000;2023-02-19T19:32:14;101506.38;;;18.47;39.18
62976;BME280;49071;0.000;0.000;2023-02-19T19:35:15;101507.00;;;18.53;39.13
62976;BME280;49071;0.000;0.000;2023-02-19T19:38:15;101508.50;;;18.60;39.26
62976;BME280;49071;0.000;0.000;2023-02-19T19:41:16;101510.09;;;18.64;39.11
62976;BME280;49071;0.000;0.000;2023-02-19T19:44:17;101509.81;;;18.74;38.95
62976;BME280;49071;0.000;0.000;2023-02-19T19:47:17;101510.13;;;18.88;38.94
62976;BME280;49071;0.000;0.000;2023-02-19T19:50:17;101508.75;;;19.01;38.68
62976;BME280;49071;0.000;0.000;2023-02-19T19:53:18;101518.97;;;19.09;38.65
62976;BME280;49071;0.000;0.000;2023-02-19T19:56:18;101503.94;;;19.13;38.54
62976;BME280;49071;0.000;0.000;2023-02-19T19:59:18;101502.16;;;19.13;38.60
62976;BME280;49071;0.000;0.000;2023-02-19T20:02:18;101503.22;;;19.09;38.65
62976;BME280;49071;0.000;0.000;2023-02-19T20:05:19;101499.81;;;19.07;38.59
62976;BME280;49071;0.000;0.000;2023-02-19T20:08:19;101492.91;;;19.03;38.85
62976;BME280;49071;0.000;0.000;2023-02-19T20:11:20;101502.53;;;19.04;38.66
62976;BME280;49071;0.000;0.000;2023-02-19T20:14:21;101506.88;;;19.05;38.84
62976;BME280;49071;0.000;0.000;2023-02-19T20:17:21;101509.53;;;19.03;38.87
62976;BME280;49071;0.000;0.000;2023-02-19T20:20:26;101507.91;;;19.01;38.93
62976;BME280;49071;0.000;0.000;2023-02-19T20:23:26;101515.09;;;18.96;38.83
62976;BME280;49071;0.000;0.000;2023-02-19T20:26:28;101517.94;;;18.90;38.99
62976;BME280;49071;0.000;0.000;2023-02-19T20:29:29;101511.19;;;18.84;39.06
62976;BME280;49071;0.000;0.000;2023-02-19T20:32:30;101520.13;;;18.78;39.10
62976;BME280;49071;0.000;0.000;2023-02-19T20:35:30;101524.66;;;18.75;39.07
62976;BME280;49071;0.000;0.000;2023-02-19T20:38:31;101528.25;;;18.72;39.10
62976;BME280;49071;0.000;0.000;2023-02-19T20:41:31;101528.44;;;18.66;39.47
62976;BME280;49071;0.000;0.000;2023-02-19T20:44:31;101526.81;;;18.62;39.35
62976;BME280;49071;0.000;0.000;2023-02-19T20:47:32;101536.59;;;18.58;39.46
62976;BME280;49071;0.000;0.000;2023-02-19T20:50:32;101541.19;;;18.52;39.48
62976;BME280;49071;0.000;0.000;2023-02-19T20:53:32;101546.56;;;18.49;39.37
62976;BME280;49071;0.000;0.000;2023-02-19T20:56:33;101545.81;;;18.45;39.74
62976;BME280;49071;0.000;0.000;2023-02-19T20:59:33;101545.22;;;18.37;39.85
62976;BME280;49071;0.000;0.000;2023-02-19T21:02:37;101552.50;;;18.29;39.71
62976;BME280;49071;0.000;0.000;2023-02-19T21:05:37;101554.47;;;18.22;39.47
62976;BME280;49071;0.000;0.000;2023-02-19T21:08:37;101556.41;;;18.17;39.51
62976;BME280;49071;0.000;0.000;2023-02-19T21:11:38;101543.47;;;18.12;39.54
62976;BME280;49071;0.000;0.000;2023-02-19T21:14:38;101550.63;;;18.07;39.73
62976;BME280;49071;0.000;0.000;2023-02-19T21:17:39;101546.41;;;18.02;39.75
62976;BME280;49071;0.000;0.000;2023-02-19T21:20:39;101554.44;;;17.97;39.96
62976;BME280;49071;0.000;0.000;2023-02-19T21:23:39;101555.56;;;17.90;39.95
62976;BME280;49071;0.000;0.000;2023-02-19T21:26:39;101555.72;;;17.85;39.81
62976;BME280;49071;0.000;0.000;2023-02-19T21:29:40;101559.41;;;17.80;39.98
62976;BME280;49071;0.000;0.000;2023-02-19T21:32:40;101563.03;;;17.74;39.95
62976;BME280;49071;0.000;0.000;2023-02-19T21:35:40;101552.72;;;17.68;39.98
62976;BME280;49071;0.000;0.000;2023-02-19T21:38:41;101549.41;;;17.63;40.04
62976;BME280;49071;0.000;0.000;2023-02-19T21:41:41;101548.69;;;17.58;39.88
62976;BME280;49071;0.000;0.000;2023-02-19T21:44:41;101543.59;;;17.53;40.08
62976;BME280;49071;0.000;0.000;2023-02-19T21:47:41;101538.50;;;17.49;40.50
62976;BME280;49071;0.000;0.000;2023-02-19T21:50:42;101534.28;;;17.43;40.08
62976;BME280;49071;0.000;0.000;2023-02-19T21:53:44;101530.94;;;17.38;40.26
62976;BME280;49071;0.000;0.000;2023-02-19T21:56:45;101523.22;;;17.33;40.33
62976;BME280;49071;0.000;0.000;2023-02-19T21:59:45;101531.22;;;17.29;40.34
62976;BME280;49071;0.000;0.000;2023-02-19T22:02:45;101520.00;;;17.23;40.36
62976;BME280;49071;0.000;0.000;2023-02-19T22:05:45;101520.16;;;17.19;40.67
62976;BME280;49071;0.000;0.000;2023-02-19T22:08:46;101509.75;;;17.16;40.30
62976;BME280;49071;0.000;0.000;2023-02-19T22:11:46;101511.56;;;17.14;40.71
62976;BME280;49071;0.000;0.000;2023-02-19T22:14:46;101506.41;;;17.11;40.46
62976;BME280;49071;0.000;0.000;2023-02-19T22:17:46;101495.22;;;17.06;40.53
62976;BME280;49071;0.000;0.000;2023-02-19T22:20:46;101497.06;;;17.02;40.34
62976;BME280;49071;0.000;0.000;2023-02-19T22:23:47;101495.41;;;16.99;40.52
62976;BME280;49071;0.000;0.000;2023-02-19T22:26:48;101488.47;;;16.97;40.59
62976;BME280;49071;0.000;0.000;2023-02-19T22:29:49;101490.38;;;16.92;40.46
62976;BME280;49071;0.000;0.000;2023-02-19T22:32:49;101484.38;;;16.88;40.49
62976;BME280;49071;0.000;0.000;2023-02-19T22:35:49;101491.47;;;16.85;40.73
62976;BME280;49071;0.000;0.000;2023-02-19T22:38:50;101490.66;;;16.83;40.60
62976;BME280;49071;0.000;0.000;2023-02-19T22:41:51;101479.41;;;16.79;40.56
62976;BME280;49071;0.000;0.000;2023-02-19T22:44:51;101474.25;;;16.76;40.62
62976;BME280;49071;0.000;0.000;2023-02-19T22:47:54;101476.94;;;16.74;40.65
62976;BME280;49071;0.000;0.000;2023-02-19T22:50:55;101478.78;;;16.69;40.39
62976;BME280;49071;0.000;0.000;2023-02-19T22:53:56;101476.22;;;16.68;40.63
62976;BME280;49071;0.000;0.000;2023-02-19T22:56:57;101480.63;;;16.66;40.65
62976;BME280;49071;0.000;0.000;2023-02-19T22:59:57;101469.38;;;16.62;40.53
62976;BME280;49071;0.000;0.000;2023-02-19T23:02:57;101468.59;;;16.59;40.78
62976;BME280;49071;0.000;0.000;2023-02-19T23:06:01;101470.44;;;16.55;40.49
62976;BME280;49071;0.000;0.000;2023-02-19T23:09:03;101486.19;;;16.53;40.70
62976;BME280;49071;0.000;0.000;2023-02-19T23:12:05;101482.78;;;16.51;40.48
62976;BME280;49071;0.000;0.000;2023-02-19T23:15:06;101487.19;;;16.49;40.73
62976;BME280;49071;0.000;0.000;2023-02-19T23:18:07;101482.03;;;16.46;40.82
62976;BME280;49071;0.000;0.000;2023-02-19T23:21:07;101480.41;;;16.42;40.94
62976;BME280;49071;0.000;0.000;2023-02-19T23:24:07;101479.59;;;16.40;40.73
62976;BME280;49071;0.000;0.000;2023-02-19T23:27:08;101475.25;;;16.39;40.71
62976;BME280;49071;0.000;0.000;2023-02-19T23:30:08;101467.47;;;16.36;40.75
62976;BME280;49071;0.000;0.000;2023-02-19T23:33:08;101465.81;;;16.34;40.66
62976;BME280;49071;0.000;0.000;2023-02-19T23:36:09;101471.09;;;16.32;40.75
62976;BME280;49071;0.000;0.000;2023-02-19T23:39:09;101466.84;;;16.28;40.87
62976;BME280;49071;0.000;0.000;2023-02-19T23:42:14;101472.09;;;16.26;40.86
62976;BME280;49071;0.000;0.000;2023-02-19T23:45:15;101472.16;;;16.25;40.93
62976;BME280;49071;0.000;0.000;2023-02-19T23:48:16;101460.00;;;16.22;40.73
62976;BME280;49071;0.000;0.000;2023-02-19T23:51:16;101458.31;;;16.20;40.76
62976;BME280;49071;0.000;0.000;2023-02-19T23:54:16;101446.13;;;16.19;40.78
62976;BME280;49071;0.000;0.000;2023-02-19T23:57:16;101445.34;;;16.17;41.02
